Flight Track Log - Related Links

Times and Time Zones

All times are in EDT time to prevent confusion due to time zone crossing. See the GJS3618 flight status page for this flight to view local times or setup timezone preferences in your user account.

Time Position Orientation Groundspeed Altitude Reporting Facility
EDT Latitude Longitude Course Direction KTS MPH feet Rate Location/Type
Mon 07:28:52 AM 41.3144 -95.9006 316° Northwest 147 169 1,400  Level Minneapolis Center
Mon 07:30:04 AM 41.3522 -95.9497 316° Northwest 207 238 4,000 2,211 Climbing Minneapolis Center
Mon 07:31:05 AM 41.3508 -96.0436 269° West 268 308 6,300 2,281 Climbing Minneapolis Center
Mon 07:32:05 AM 41.3558 -96.1311 274° West 256 295 8,600 2,430 Climbing Minneapolis Center
Mon 07:33:06 AM 41.3572 -96.2372 271° West 278 320 11,200 1,884 Climbing Minneapolis Center
Mon 07:34:06 AM 41.3589 -96.3511 271° West 299 344 12,400 1,438 Climbing Minneapolis Center
Mon 07:35:07 AM 41.3611 -96.4839 271° West 347 399 14,100 1,835 Climbing Minneapolis Center
Mon 07:36:07 AM 41.3631 -96.6186 271° West 361 415 16,100 1,800 Climbing Minneapolis Center
Mon 07:37:07 AM 41.3656 -96.7539 271° West 366 421 17,700 1,587 Climbing Minneapolis Center
Mon 07:38:08 AM 41.3672 -96.8942 271° West 375 432 19,300 1,537 Climbing Minneapolis Center
Mon 07:39:08 AM 41.3686 -97.0358 271° West 381 438 20,800 1,240 Climbing Minneapolis Center
Mon 07:40:09 AM 41.3700 -97.1844 271° West 395 455 21,800 992 Climbing Minneapolis Center
Mon 07:41:09 AM 41.3722 -97.3375 271° West 409 471 22,800 1,091 Climbing Minneapolis Center
Mon 07:42:10 AM 41.3728 -97.4947 270° West 420 483 24,000 1,289 Climbing Minneapolis Center
Mon 07:43:10 AM 41.3742 -97.6525 271° West 424 488 25,400 1,388 Climbing Minneapolis Center
Mon 07:44:11 AM 41.3742 -97.8081 270° West 423 487 26,800 1,190 Climbing Minneapolis Center
Mon 07:45:11 AM 41.3742 -97.9631 270° West 421 484 27,800 1,091 Climbing Minneapolis Center
Mon 07:46:12 AM 41.3758 -98.1383 271° West 424 488 29,000 1,091 Climbing Minneapolis Center
Mon 07:47:12 AM 41.3756 -98.2961 270° West 427 491 30,000 1,050 Climbing Minneapolis Center
Mon 07:48:12 AM 41.3469 -98.4708 258° West 446 513 31,100 1,041 Climbing Minneapolis Center
Mon 07:49:13 AM 41.3058 -98.6286 251° West 453 521 32,100 992 Climbing Minneapolis Center
Mon 07:50:13 AM 41.2722 -98.7861 254° West 449 517 33,100 992 Climbing Minneapolis Center
Mon 07:51:14 AM 41.2311 -98.9472 251° West 457 526 34,100 984 Climbing Minneapolis Center
Mon 07:52:15 AM 41.1911 -99.1042 251° West 451 519 35,100 992 Climbing Minneapolis Center
Mon 07:53:15 AM 41.1506 -99.2647 252° West 445 512 36,100 992 Climbing Minneapolis Center
Mon 07:54:16 AM 41.1114 -99.4186 251° West 442 509 37,100 843 Climbing Minneapolis Center
Mon 07:55:16 AM 41.0725 -99.5686 251° West 435 501 37,800 446 Climbing Minneapolis Center
Mon 07:56:17 AM 41.0339 -99.7211 251° West 435 501 38,000 99 Climbing Minneapolis Center
Mon 07:57:17 AM 40.9939 -99.8772 251° West 443 510 38,000  Level Minneapolis Center
Mon 07:58:18 AM 40.9533 -100.0333 251° West 447 514 38,000  Level Minneapolis Center
Mon 07:59:19 AM 40.9139 -100.1842 251° West 439 505 38,000  Level Minneapolis Center
Mon 08:00:19 AM 40.8742 -100.3331 251° West 434 499 38,000  Level Minneapolis Center
Mon 08:01:20 AM 40.8344 -100.4817 251° West 431 496 38,000  Level Minneapolis Center
Mon 08:02:46 AM 40.7794 -100.6786 250° West 434 499 38,000  Level Denver Center
Mon 08:03:46 AM 40.7494 -100.8675 258° West 463 533 38,000  Level Denver Center
Mon 08:04:47 AM 40.7272 -101.0164 259° West 440 506 38,000  Level Denver Center
Mon 08:05:47 AM 40.7011 -101.1686 257° West 444 511 38,000  Level Denver Center
Mon 08:06:47 AM 40.6744 -101.3244 257° West 453 521 38,000  Level Denver Center
Mon 08:07:48 AM 40.6422 -101.5081 257° West 461 531 38,000  Level Denver Center
Mon 08:08:48 AM 40.6142 -101.6669 257° West 464 534 38,000  Level Denver Center
Mon 08:09:49 AM 40.5856 -101.8250 257° West 465 535 38,000  Level Denver Center
Mon 08:10:49 AM 40.5517 -102.0103 257° West 466 536 38,000  Level Denver Center
Mon 08:11:49 AM 40.5222 -102.1681 256° West 466 536 38,000  Level Denver Center
Mon 08:12:50 AM 40.4936 -102.3278 257° West 468 539 38,000 -545 Level Denver Center
Mon 08:13:50 AM 40.4583 -102.5142 256° West 471 542 36,900 -992 Descending Denver Center
Mon 08:14:51 AM 40.4281 -102.6736 256° West 472 543 36,000 -942 Descending Denver Center
Mon 08:15:51 AM 40.3964 -102.8411 256° West 474 545 35,000 -1,000 Descending Denver Center
Mon 08:16:51 AM 40.3639 -103.0042 255° West 466 536 34,000 -1,438 Descending Denver Center
Mon 08:17:52 AM 40.3331 -103.1700 256° West 468 539 32,100 -2,529 Descending Denver Center
Mon 08:18:52 AM 40.3011 -103.3381 256° West 476 548 28,900 -3,223 Descending Denver Center
Mon 08:19:53 AM 40.2694 -103.4994 256° West 462 532 25,600 -3,273 Descending Denver Center
Mon 08:20:53 AM 40.2389 -103.6567 256° West 449 517 22,300 -2,975 Descending Denver Center
Mon 08:21:54 AM 40.2097 -103.8119 256° West 419 482 19,600 -2,231 Descending Denver Center
Mon 08:22:54 AM 40.1789 -103.9436 253° West 375 432 17,800 -1,884 Descending Denver Center
Mon 08:23:55 AM 40.1567 -104.0711 257° West 360 414 15,800 -2,033 Descending Denver Center
Mon 08:24:55 AM 40.1003 -104.1764 235° Southwest 353 406 13,700 -2,033 Descending Denver Center
Mon 08:25:56 AM 40.0047 -104.1994 190° South 349 402 11,700 -1,785 Descending Denver Center
Mon 08:26:56 AM 39.9431 -104.2889 228° Southwest 340 391 10,100 -893 Descending Denver Center
Mon 08:27:57 AM 39.9078 -104.3756 242° Southwest 271 312 9,900 -788 Descending Denver Center
Mon 08:28:35 AM 39.8833 -104.4167 232° Southwest 230 265 8,800 -1,776 Descending Denver TRACON
Mon 08:29:35 AM 39.8833 -104.5000 270° West 213 245 7,000 -1,300 Descending Denver TRACON
Mon 08:30:35 AM 39.8833 -104.5500 270° West 149 171 6,200 -750 Descending Denver TRACON
Mon 08:31:35 AM 39.8833 -104.6167 270° West 146 168 5,500 -700 Descending Denver TRACON
Mon 08:33:00 AM 39.8500 -104.6667 180° South  Level FlightAware Approximate
Mon 08:40:00 AM 39.8617 -104.6732 180° South  Level Estimated
Mon 08:41:00 AM 39.8617 -104.6732 180° South  Level Estimated
Mon 08:42:00 AM 39.8617 -104.6732 180° South  Level Estimated

Login

Don't have an account? Register now (free) for customized features, flight alerts, and more!